sensor_id;sensor_type;location;lat;lon;timestamp;P1;durP1;ratioP1;P2;durP2;ratioP2
65230;SDS011;51813;40.666;16.602;2023-04-06T00:00:54;4.95;;;3.35;;
65230;SDS011;51813;40.666;16.602;2023-04-06T00:03:20;4.75;;;3.30;;
65230;SDS011;51813;40.666;16.602;2023-04-06T00:05:46;5.47;;;3.95;;
65230;SDS011;51813;40.666;16.602;2023-04-06T00:08:13;4.63;;;3.30;;
65230;SDS011;51813;40.666;16.602;2023-04-06T00:10:39;6.57;;;4.40;;
65230;SDS011;51813;40.666;16.602;2023-04-06T00:13:05;5.65;;;3.33;;
65230;SDS011;51813;40.666;16.602;2023-04-06T00:15:32;5.20;;;3.80;;
65230;SDS011;51813;40.666;16.602;2023-04-06T00:17:57;5.32;;;3.97;;
65230;SDS011;51813;40.666;16.602;2023-04-06T00:20:23;5.18;;;3.40;;
65230;SDS011;51813;40.666;16.602;2023-04-06T00:22:49;4.80;;;3.38;;
65230;SDS011;51813;40.666;16.602;2023-04-06T00:25:15;5.40;;;4.00;;
65230;SDS011;51813;40.666;16.602;2023-04-06T00:27:41;5.28;;;3.90;;
65230;SDS011;51813;40.666;16.602;2023-04-06T00:30:07;6.07;;;3.65;;
65230;SDS011;51813;40.666;16.602;2023-04-06T00:32:34;5.10;;;3.85;;
65230;SDS011;51813;40.666;16.602;2023-04-06T00:35:01;6.13;;;3.83;;
65230;SDS011;51813;40.666;16.602;2023-04-06T00:37:28;5.75;;;3.65;;
65230;SDS011;51813;40.666;16.602;2023-04-06T00:39:53;5.90;;;4.32;;
65230;SDS011;51813;40.666;16.602;2023-04-06T00:42:19;4.68;;;3.70;;
65230;SDS011;51813;40.666;16.602;2023-04-06T00:44:53;4.93;;;3.83;;
65230;SDS011;51813;40.666;16.602;2023-04-06T00:47:24;6.80;;;4.80;;
65230;SDS011;51813;40.666;16.602;2023-04-06T00:49:50;5.05;;;3.95;;
65230;SDS011;51813;40.666;16.602;2023-04-06T00:52:17;4.95;;;3.80;;
65230;SDS011;51813;40.666;16.602;2023-04-06T00:54:43;5.45;;;4.15;;
65230;SDS011;51813;40.666;16.602;2023-04-06T00:57:10;6.22;;;4.72;;
65230;SDS011;51813;40.666;16.602;2023-04-06T00:59:43;5.32;;;4.05;;
65230;SDS011;51813;40.666;16.602;2023-04-06T01:02:24;6.45;;;4.70;;
65230;SDS011;51813;40.666;16.602;2023-04-06T01:04:51;7.72;;;5.00;;
65230;SDS011;51813;40.666;16.602;2023-04-06T01:07:18;7.45;;;4.90;;
65230;SDS011;51813;40.666;16.602;2023-04-06T01:09:44;6.47;;;4.90;;
65230;SDS011;51813;40.666;16.602;2023-04-06T01:12:10;6.10;;;4.63;;
65230;SDS011;51813;40.666;16.602;2023-04-06T01:14:36;6.90;;;5.05;;
65230;SDS011;51813;40.666;16.602;2023-04-06T01:17:02;5.97;;;4.30;;
65230;SDS011;51813;40.666;16.602;2023-04-06T01:19:27;6.32;;;4.90;;
65230;SDS011;51813;40.666;16.602;2023-04-06T01:21:53;5.30;;;4.00;;
65230;SDS011;51813;40.666;16.602;2023-04-06T01:24:20;6.13;;;4.40;;
65230;SDS011;51813;40.666;16.602;2023-04-06T01:26:46;6.85;;;4.82;;
65230;SDS011;51813;40.666;16.602;2023-04-06T01:29:13;6.63;;;4.60;;
65230;SDS011;51813;40.666;16.602;2023-04-06T01:31:39;5.50;;;4.47;;
65230;SDS011;51813;40.666;16.602;2023-04-06T01:34:05;6.40;;;4.70;;
65230;SDS011;51813;40.666;16.602;2023-04-06T01:36:31;4.88;;;3.60;;
65230;SDS011;51813;40.666;16.602;2023-04-06T01:38:57;6.80;;;4.72;;
65230;SDS011;51813;40.666;16.602;2023-04-06T01:41:22;7.28;;;4.60;;
65230;SDS011;51813;40.666;16.602;2023-04-06T01:43:48;5.00;;;4.00;;
65230;SDS011;51813;40.666;16.602;2023-04-06T01:46:14;7.65;;;4.60;;
65230;SDS011;51813;40.666;16.602;2023-04-06T01:48:40;5.82;;;4.80;;
65230;SDS011;51813;40.666;16.602;2023-04-06T01:51:07;6.43;;;4.40;;
65230;SDS011;51813;40.666;16.602;2023-04-06T01:53:32;5.68;;;4.25;;
65230;SDS011;51813;40.666;16.602;2023-04-06T01:55:58;6.60;;;5.00;;
65230;SDS011;51813;40.666;16.602;2023-04-06T01:58:24;7.07;;;4.80;;
65230;SDS011;51813;40.666;16.602;2023-04-06T02:00:50;5.47;;;4.30;;
65230;SDS011;51813;40.666;16.602;2023-04-06T02:03:16;6.10;;;4.47;;
65230;SDS011;51813;40.666;16.602;2023-04-06T02:05:41;6.82;;;4.15;;
65230;SDS011;51813;40.666;16.602;2023-04-06T02:08:07;7.88;;;4.25;;
65230;SDS011;51813;40.666;16.602;2023-04-06T02:10:33;8.40;;;4.78;;
65230;SDS011;51813;40.666;16.602;2023-04-06T02:13:00;5.70;;;4.50;;
65230;SDS011;51813;40.666;16.602;2023-04-06T02:15:26;5.07;;;3.80;;
65230;SDS011;51813;40.666;16.602;2023-04-06T02:17:52;4.93;;;3.60;;
65230;SDS011;51813;40.666;16.602;2023-04-06T02:20:18;5.50;;;4.35;;
65230;SDS011;51813;40.666;16.602;2023-04-06T02:22:44;4.50;;;3.90;;
65230;SDS011;51813;40.666;16.602;2023-04-06T02:25:10;5.15;;;3.90;;
65230;SDS011;51813;40.666;16.602;2023-04-06T02:27:36;5.40;;;4.10;;
65230;SDS011;51813;40.666;16.602;2023-04-06T02:30:03;5.20;;;3.85;;
65230;SDS011;51813;40.666;16.602;2023-04-06T02:32:29;4.97;;;3.85;;
65230;SDS011;51813;40.666;16.602;2023-04-06T02:34:55;5.03;;;3.47;;
65230;SDS011;51813;40.666;16.602;2023-04-06T02:37:21;4.95;;;3.83;;
65230;SDS011;51813;40.666;16.602;2023-04-06T02:39:49;5.57;;;4.20;;
65230;SDS011;51813;40.666;16.602;2023-04-06T02:42:15;5.28;;;3.60;;
65230;SDS011;51813;40.666;16.602;2023-04-06T02:44:41;5.57;;;3.70;;
65230;SDS011;51813;40.666;16.602;2023-04-06T02:47:07;4.78;;;3.40;;
65230;SDS011;51813;40.666;16.602;2023-04-06T02:49:33;4.97;;;3.33;;
65230;SDS011;51813;40.666;16.602;2023-04-06T02:51:59;4.85;;;3.67;;
65230;SDS011;51813;40.666;16.602;2023-04-06T02:54:25;5.03;;;3.53;;
65230;SDS011;51813;40.666;16.602;2023-04-06T02:56:51;4.50;;;3.45;;
65230;SDS011;51813;40.666;16.602;2023-04-06T02:59:16;4.60;;;3.85;;
65230;SDS011;51813;40.666;16.602;2023-04-06T03:01:42;5.13;;;3.50;;
65230;SDS011;51813;40.666;16.602;2023-04-06T03:04:08;5.22;;;3.50;;
65230;SDS011;51813;40.666;16.602;2023-04-06T03:06:33;5.90;;;4.05;;
65230;SDS011;51813;40.666;16.602;2023-04-06T03:08:59;5.97;;;3.78;;
65230;SDS011;51813;40.666;16.602;2023-04-06T03:11:25;4.18;;;3.03;;
65230;SDS011;51813;40.666;16.602;2023-04-06T03:13:51;4.35;;;3.22;;
65230;SDS011;51813;40.666;16.602;2023-04-06T03:16:17;5.35;;;3.65;;
65230;SDS011;51813;40.666;16.602;2023-04-06T03:18:43;4.97;;;3.30;;
65230;SDS011;51813;40.666;16.602;2023-04-06T03:21:10;4.32;;;3.28;;
65230;SDS011;51813;40.666;16.602;2023-04-06T03:23:36;4.40;;;3.22;;
65230;SDS011;51813;40.666;16.602;2023-04-06T03:26:01;5.25;;;4.10;;
65230;SDS011;51813;40.666;16.602;2023-04-06T03:28:28;4.80;;;3.45;;
65230;SDS011;51813;40.666;16.602;2023-04-06T03:30:54;5.93;;;4.10;;
65230;SDS011;51813;40.666;16.602;2023-04-06T03:33:20;5.45;;;3.70;;
65230;SDS011;51813;40.666;16.602;2023-04-06T03:35:46;5.60;;;3.90;;
65230;SDS011;51813;40.666;16.602;2023-04-06T03:38:11;4.80;;;3.60;;
65230;SDS011;51813;40.666;16.602;2023-04-06T03:40:37;5.32;;;3.20;;
65230;SDS011;51813;40.666;16.602;2023-04-06T03:43:03;4.65;;;3.63;;
65230;SDS011;51813;40.666;16.602;2023-04-06T03:45:29;5.07;;;3.72;;
65230;SDS011;51813;40.666;16.602;2023-04-06T03:47:55;4.03;;;3.13;;
65230;SDS011;51813;40.666;16.602;2023-04-06T03:50:21;5.10;;;3.65;;
65230;SDS011;51813;40.666;16.602;2023-04-06T03:52:47;6.10;;;3.63;;
65230;SDS011;51813;40.666;16.602;2023-04-06T03:55:12;5.03;;;3.65;;
65230;SDS011;51813;40.666;16.602;2023-04-06T03:57:38;4.70;;;2.97;;
65230;SDS011;51813;40.666;16.602;2023-04-06T04:00:04;4.40;;;3.03;;
65230;SDS011;51813;40.666;16.602;2023-04-06T04:02:30;5.78;;;3.30;;
65230;SDS011;51813;40.666;16.602;2023-04-06T04:04:56;5.30;;;3.95;;
65230;SDS011;51813;40.666;16.602;2023-04-06T04:07:22;4.53;;;3.20;;
65230;SDS011;51813;40.666;16.602;2023-04-06T04:09:47;4.88;;;3.60;;
65230;SDS011;51813;40.666;16.602;2023-04-06T04:12:13;6.53;;;4.07;;
65230;SDS011;51813;40.666;16.602;2023-04-06T04:14:40;4.78;;;3.20;;
65230;SDS011;51813;40.666;16.602;2023-04-06T04:17:06;5.00;;;3.83;;
65230;SDS011;51813;40.666;16.602;2023-04-06T04:19:31;6.88;;;4.00;;
65230;SDS011;51813;40.666;16.602;2023-04-06T04:21:57;5.35;;;3.88;;
65230;SDS011;51813;40.666;16.602;2023-04-06T04:24:23;5.35;;;4.05;;
65230;SDS011;51813;40.666;16.602;2023-04-06T04:26:48;5.60;;;3.35;;
65230;SDS011;51813;40.666;16.602;2023-04-06T04:29:14;5.45;;;3.80;;
65230;SDS011;51813;40.666;16.602;2023-04-06T04:31:40;5.30;;;3.50;;
65230;SDS011;51813;40.666;16.602;2023-04-06T04:34:06;5.18;;;4.18;;
65230;SDS011;51813;40.666;16.602;2023-04-06T04:36:32;6.00;;;3.83;;
65230;SDS011;51813;40.666;16.602;2023-04-06T04:38:57;7.10;;;3.58;;
65230;SDS011;51813;40.666;16.602;2023-04-06T04:41:26;4.80;;;3.50;;
65230;SDS011;51813;40.666;16.602;2023-04-06T04:43:51;5.20;;;3.83;;
65230;SDS011;51813;40.666;16.602;2023-04-06T04:46:17;5.88;;;4.15;;
65230;SDS011;51813;40.666;16.602;2023-04-06T04:48:43;7.55;;;4.10;;
65230;SDS011;51813;40.666;16.602;2023-04-06T04:51:08;5.43;;;3.70;;
65230;SDS011;51813;40.666;16.602;2023-04-06T04:53:34;6.25;;;4.10;;
65230;SDS011;51813;40.666;16.602;2023-04-06T04:56:00;5.35;;;4.05;;
65230;SDS011;51813;40.666;16.602;2023-04-06T04:58:26;5.07;;;3.97;;
65230;SDS011;51813;40.666;16.602;2023-04-06T05:00:51;5.95;;;3.55;;
65230;SDS011;51813;40.666;16.602;2023-04-06T05:03:24;5.00;;;3.53;;
65230;SDS011;51813;40.666;16.602;2023-04-06T05:05:50;4.70;;;3.50;;
65230;SDS011;51813;40.666;16.602;2023-04-06T05:08:16;6.60;;;4.10;;
65230;SDS011;51813;40.666;16.602;2023-04-06T05:10:42;4.78;;;3.55;;
65230;SDS011;51813;40.666;16.602;2023-04-06T05:13:09;5.03;;;3.53;;
65230;SDS011;51813;40.666;16.602;2023-04-06T05:15:35;4.25;;;3.03;;
65230;SDS011;51813;40.666;16.602;2023-04-06T05:18:03;5.07;;;3.55;;
65230;SDS011;51813;40.666;16.602;2023-04-06T05:20:29;4.68;;;3.10;;
65230;SDS011;51813;40.666;16.602;2023-04-06T05:22:55;5.15;;;3.38;;
65230;SDS011;51813;40.666;16.602;2023-04-06T05:25:21;4.57;;;3.30;;
65230;SDS011;51813;40.666;16.602;2023-04-06T05:27:47;5.65;;;3.65;;
65230;SDS011;51813;40.666;16.602;2023-04-06T05:30:13;5.72;;;3.30;;
65230;SDS011;51813;40.666;16.602;2023-04-06T05:32:39;4.63;;;3.20;;
65230;SDS011;51813;40.666;16.602;2023-04-06T05:35:05;7.82;;;3.40;;
65230;SDS011;51813;40.666;16.602;2023-04-06T05:37:31;4.55;;;3.40;;
65230;SDS011;51813;40.666;16.602;2023-04-06T05:39:57;5.68;;;3.63;;
65230;SDS011;51813;40.666;16.602;2023-04-06T05:42:22;5.03;;;3.30;;
65230;SDS011;51813;40.666;16.602;2023-04-06T05:44:48;5.90;;;3.50;;
65230;SDS011;51813;40.666;16.602;2023-04-06T05:47:14;5.55;;;4.00;;
65230;SDS011;51813;40.666;16.602;2023-04-06T05:49:41;4.50;;;3.38;;
65230;SDS011;51813;40.666;16.602;2023-04-06T05:52:08;4.07;;;3.13;;
65230;SDS011;51813;40.666;16.602;2023-04-06T05:54:35;4.78;;;3.03;;
65230;SDS011;51813;40.666;16.602;2023-04-06T05:57:01;4.80;;;3.50;;
65230;SDS011;51813;40.666;16.602;2023-04-06T05:59:29;4.80;;;3.60;;
65230;SDS011;51813;40.666;16.602;2023-04-06T06:01:56;4.85;;;3.15;;
65230;SDS011;51813;40.666;16.602;2023-04-06T06:04:22;6.45;;;3.53;;
65230;SDS011;51813;40.666;16.602;2023-04-06T06:06:47;5.53;;;3.90;;
65230;SDS011;51813;40.666;16.602;2023-04-06T06:09:13;5.70;;;4.70;;
65230;SDS011;51813;40.666;16.602;2023-04-06T06:11:39;4.45;;;3.15;;
65230;SDS011;51813;40.666;16.602;2023-04-06T06:14:06;4.72;;;3.47;;
65230;SDS011;51813;40.666;16.602;2023-04-06T06:16:32;5.32;;;3.65;;
65230;SDS011;51813;40.666;16.602;2023-04-06T06:18:58;5.75;;;4.10;;
65230;SDS011;51813;40.666;16.602;2023-04-06T06:21:23;5.85;;;3.85;;
65230;SDS011;51813;40.666;16.602;2023-04-06T06:23:49;5.15;;;3.78;;
65230;SDS011;51813;40.666;16.602;2023-04-06T06:26:15;7.13;;;4.20;;
65230;SDS011;51813;40.666;16.602;2023-04-06T06:28:41;5.05;;;3.65;;
65230;SDS011;51813;40.666;16.602;2023-04-06T06:31:07;6.05;;;4.10;;
65230;SDS011;51813;40.666;16.602;2023-04-06T06:33:33;5.47;;;3.85;;
65230;SDS011;51813;40.666;16.602;2023-04-06T06:35:58;5.28;;;3.80;;
65230;SDS011;51813;40.666;16.602;2023-04-06T06:38:25;7.40;;;4.25;;
65230;SDS011;51813;40.666;16.602;2023-04-06T06:40:50;5.07;;;3.50;;
65230;SDS011;51813;40.666;16.602;2023-04-06T06:43:16;6.72;;;4.35;;
65230;SDS011;51813;40.666;16.602;2023-04-06T06:45:42;6.35;;;3.72;;
65230;SDS011;51813;40.666;16.602;2023-04-06T06:48:09;4.55;;;3.40;;
65230;SDS011;51813;40.666;16.602;2023-04-06T06:50:34;6.90;;;4.68;;
65230;SDS011;51813;40.666;16.602;2023-04-06T06:53:00;5.57;;;4.15;;
65230;SDS011;51813;40.666;16.602;2023-04-06T06:55:26;5.68;;;3.60;;
65230;SDS011;51813;40.666;16.602;2023-04-06T06:57:52;6.20;;;4.43;;
65230;SDS011;51813;40.666;16.602;2023-04-06T07:00:18;5.68;;;4.22;;
65230;SDS011;51813;40.666;16.602;2023-04-06T07:02:46;7.18;;;4.07;;
65230;SDS011;51813;40.666;16.602;2023-04-06T07:05:12;5.97;;;3.72;;
65230;SDS011;51813;40.666;16.602;2023-04-06T07:07:38;5.88;;;4.05;;
65230;SDS011;51813;40.666;16.602;2023-04-06T07:10:04;6.43;;;3.72;;
65230;SDS011;51813;40.666;16.602;2023-04-06T07:12:30;6.53;;;3.90;;
65230;SDS011;51813;40.666;16.602;2023-04-06T07:14:56;5.72;;;4.00;;
65230;SDS011;51813;40.666;16.602;2023-04-06T07:17:22;5.43;;;3.83;;
65230;SDS011;51813;40.666;16.602;2023-04-06T07:19:47;6.35;;;3.83;;
65230;SDS011;51813;40.666;16.602;2023-04-06T07:22:13;7.25;;;4.03;;
65230;SDS011;51813;40.666;16.602;2023-04-06T07:24:39;9.65;;;4.57;;
65230;SDS011;51813;40.666;16.602;2023-04-06T07:27:05;7.07;;;4.50;;
65230;SDS011;51813;40.666;16.602;2023-04-06T07:29:32;7.78;;;4.68;;
65230;SDS011;51813;40.666;16.602;2023-04-06T07:31:58;7.63;;;5.13;;
65230;SDS011;51813;40.666;16.602;2023-04-06T07:34:23;6.93;;;4.75;;
65230;SDS011;51813;40.666;16.602;2023-04-06T07:36:49;7.20;;;4.53;;
65230;SDS011;51813;40.666;16.602;2023-04-06T07:39:15;6.90;;;4.47;;
65230;SDS011;51813;40.666;16.602;2023-04-06T07:41:41;6.43;;;4.05;;
65230;SDS011;51813;40.666;16.602;2023-04-06T07:44:06;7.07;;;3.88;;
65230;SDS011;51813;40.666;16.602;2023-04-06T07:46:32;5.38;;;3.90;;
65230;SDS011;51813;40.666;16.602;2023-04-06T07:48:59;7.00;;;4.00;;
65230;SDS011;51813;40.666;16.602;2023-04-06T07:51:26;5.32;;;3.88;;
65230;SDS011;51813;40.666;16.602;2023-04-06T07:53:52;5.47;;;3.53;;
65230;SDS011;51813;40.666;16.602;2023-04-06T07:56:18;6.68;;;3.95;;
65230;SDS011;51813;40.666;16.602;2023-04-06T07:58:43;4.82;;;3.50;;
65230;SDS011;51813;40.666;16.602;2023-04-06T08:01:09;5.75;;;3.90;;
65230;SDS011;51813;40.666;16.602;2023-04-06T08:03:35;6.43;;;3.95;;
65230;SDS011;51813;40.666;16.602;2023-04-06T08:06:01;6.35;;;3.53;;
65230;SDS011;51813;40.666;16.602;2023-04-06T08:08:28;6.32;;;3.70;;
65230;SDS011;51813;40.666;16.602;2023-04-06T08:10:53;5.32;;;3.78;;
65230;SDS011;51813;40.666;16.602;2023-04-06T08:13:20;6.68;;;4.47;;
65230;SDS011;51813;40.666;16.602;2023-04-06T08:15:46;8.15;;;4.38;;
65230;SDS011;51813;40.666;16.602;2023-04-06T08:18:12;5.75;;;3.55;;
65230;SDS011;51813;40.666;16.602;2023-04-06T08:20:38;6.20;;;4.43;;
65230;SDS011;51813;40.666;16.602;2023-04-06T08:23:04;6.72;;;3.80;;
65230;SDS011;51813;40.666;16.602;2023-04-06T08:25:31;6.20;;;4.00;;
65230;SDS011;51813;40.666;16.602;2023-04-06T08:27:58;7.28;;;4.25;;
65230;SDS011;51813;40.666;16.602;2023-04-06T08:30:24;5.85;;;3.42;;
65230;SDS011;51813;40.666;16.602;2023-04-06T08:32:50;6.57;;;4.28;;
65230;SDS011;51813;40.666;16.602;2023-04-06T08:35:16;5.22;;;3.63;;
65230;SDS011;51813;40.666;16.602;2023-04-06T08:37:42;4.85;;;3.53;;
65230;SDS011;51813;40.666;16.602;2023-04-06T08:40:07;5.57;;;3.80;;
65230;SDS011;51813;40.666;16.602;2023-04-06T08:42:34;6.28;;;3.70;;
65230;SDS011;51813;40.666;16.602;2023-04-06T08:45:09;6.40;;;3.92;;
65230;SDS011;51813;40.666;16.602;2023-04-06T08:47:38;5.65;;;3.63;;
65230;SDS011;51813;40.666;16.602;2023-04-06T08:50:05;6.65;;;4.25;;
65230;SDS011;51813;40.666;16.602;2023-04-06T08:52:32;4.80;;;3.78;;
65230;SDS011;51813;40.666;16.602;2023-04-06T08:54:59;5.55;;;3.70;;
65230;SDS011;51813;40.666;16.602;2023-04-06T08:57:25;5.95;;;3.75;;
65230;SDS011;51813;40.666;16.602;2023-04-06T08:59:52;6.18;;;3.88;;
65230;SDS011;51813;40.666;16.602;2023-04-06T09:02:19;5.43;;;4.18;;
65230;SDS011;51813;40.666;16.602;2023-04-06T09:04:45;6.50;;;4.20;;
65230;SDS011;51813;40.666;16.602;2023-04-06T09:07:13;6.60;;;4.30;;
65230;SDS011;51813;40.666;16.602;2023-04-06T09:09:40;5.25;;;3.80;;
65230;SDS011;51813;40.666;16.602;2023-04-06T09:12:21;5.30;;;3.60;;
65230;SDS011;51813;40.666;16.602;2023-04-06T09:14:54;5.07;;;3.50;;
65230;SDS011;51813;40.666;16.602;2023-04-06T09:17:24;7.13;;;3.85;;
65230;SDS011;51813;40.666;16.602;2023-04-06T09:19:55;5.57;;;3.80;;
65230;SDS011;51813;40.666;16.602;2023-04-06T09:22:21;6.13;;;3.70;;
65230;SDS011;51813;40.666;16.602;2023-04-06T09:24:51;5.20;;;3.95;;
65230;SDS011;51813;40.666;16.602;2023-04-06T09:27:17;6.30;;;3.60;;
65230;SDS011;51813;40.666;16.602;2023-04-06T09:30:02;5.35;;;4.00;;
65230;SDS011;51813;40.666;16.602;2023-04-06T09:32:48;6.75;;;3.83;;
65230;SDS011;51813;40.666;16.602;2023-04-06T09:35:14;6.35;;;3.72;;
65230;SDS011;51813;40.666;16.602;2023-04-06T09:37:41;5.38;;;3.83;;
65230;SDS011;51813;40.666;16.602;2023-04-06T09:40:11;5.40;;;3.30;;
65230;SDS011;51813;40.666;16.602;2023-04-06T09:42:40;6.65;;;4.00;;
65230;SDS011;51813;40.666;16.602;2023-04-06T09:45:07;5.55;;;3.50;;
65230;SDS011;51813;40.666;16.602;2023-04-06T09:47:33;7.25;;;4.60;;
65230;SDS011;51813;40.666;16.602;2023-04-06T09:50:01;6.28;;;3.70;;
65230;SDS011;51813;40.666;16.602;2023-04-06T09:55:06;5.65;;;3.78;;
65230;SDS011;51813;40.666;16.602;2023-04-06T10:00:15;7.63;;;3.90;;
65230;SDS011;51813;40.666;16.602;2023-04-06T10:02:50;5.57;;;4.00;;
65230;SDS011;51813;40.666;16.602;2023-04-06T10:05:19;6.03;;;4.03;;
65230;SDS011;51813;40.666;16.602;2023-04-06T10:07:52;6.35;;;4.22;;
65230;SDS011;51813;40.666;16.602;2023-04-06T10:10:21;5.63;;;3.58;;
65230;SDS011;51813;40.666;16.602;2023-04-06T10:12:47;6.55;;;3.80;;
65230;SDS011;51813;40.666;16.602;2023-04-06T10:15:14;6.50;;;4.35;;
65230;SDS011;51813;40.666;16.602;2023-04-06T10:17:40;6.28;;;3.90;;
65230;SDS011;51813;40.666;16.602;2023-04-06T10:25:05;6.18;;;3.95;;
65230;SDS011;51813;40.666;16.602;2023-04-06T10:27:32;6.05;;;4.55;;
65230;SDS011;51813;40.666;16.602;2023-04-06T10:30:02;6.07;;;3.83;;
65230;SDS011;51813;40.666;16.602;2023-04-06T10:35:35;5.80;;;3.85;;
65230;SDS011;51813;40.666;16.602;2023-04-06T10:38:03;6.25;;;4.07;;
65230;SDS011;51813;40.666;16.602;2023-04-06T10:40:30;5.57;;;3.75;;
65230;SDS011;51813;40.666;16.602;2023-04-06T10:43:10;5.80;;;3.70;;
65230;SDS011;51813;40.666;16.602;2023-04-06T10:45:37;5.75;;;4.00;;
65230;SDS011;51813;40.666;16.602;2023-04-06T10:48:17;6.18;;;3.90;;
65230;SDS011;51813;40.666;16.602;2023-04-06T10:50:44;5.90;;;3.85;;
65230;SDS011;51813;40.666;16.602;2023-04-06T10:53:11;6.88;;;4.53;;
65230;SDS011;51813;40.666;16.602;2023-04-06T10:55:45;5.43;;;4.07;;
65230;SDS011;51813;40.666;16.602;2023-04-06T10:58:14;6.13;;;3.70;;
65230;SDS011;51813;40.666;16.602;2023-04-06T11:00:49;6.13;;;3.63;;
65230;SDS011;51813;40.666;16.602;2023-04-06T11:03:15;5.95;;;3.75;;
65230;SDS011;51813;40.666;16.602;2023-04-06T11:05:45;5.97;;;3.60;;
65230;SDS011;51813;40.666;16.602;2023-04-06T11:08:30;6.60;;;3.70;;
65230;SDS011;51813;40.666;16.602;2023-04-06T11:16:31;6.80;;;3.10;;
65230;SDS011;51813;40.666;16.602;2023-04-06T11:18:59;4.45;;;3.00;;
65230;SDS011;51813;40.666;16.602;2023-04-06T11:24:20;5.10;;;2.83;;
65230;SDS011;51813;40.666;16.602;2023-04-06T11:29:24;4.30;;;2.67;;
65230;SDS011;51813;40.666;16.602;2023-04-06T11:32:03;4.45;;;2.83;;
65230;SDS011;51813;40.666;16.602;2023-04-06T11:34:30;4.07;;;3.10;;
65230;SDS011;51813;40.666;16.602;2023-04-06T11:36:59;4.13;;;2.85;;
65230;SDS011;51813;40.666;16.602;2023-04-06T11:39:27;6.22;;;2.80;;
65230;SDS011;51813;40.666;16.602;2023-04-06T11:41:56;5.60;;;3.08;;
65230;SDS011;51813;40.666;16.602;2023-04-06T11:44:34;5.25;;;3.10;;
65230;SDS011;51813;40.666;16.602;2023-04-06T11:47:03;4.47;;;2.75;;
65230;SDS011;51813;40.666;16.602;2023-04-06T11:49:31;4.85;;;2.90;;
65230;SDS011;51813;40.666;16.602;2023-04-06T11:51:58;3.95;;;2.85;;
65230;SDS011;51813;40.666;16.602;2023-04-06T11:54:35;4.20;;;3.15;;
65230;SDS011;51813;40.666;16.602;2023-04-06T11:57:02;4.10;;;2.92;;
65230;SDS011;51813;40.666;16.602;2023-04-06T11:59:30;4.63;;;3.15;;
65230;SDS011;51813;40.666;16.602;2023-04-06T12:01:59;4.57;;;3.10;;
65230;SDS011;51813;40.666;16.602;2023-04-06T12:04:26;4.93;;;3.00;;
65230;SDS011;51813;40.666;16.602;2023-04-06T12:06:51;4.50;;;3.20;;
65230;SDS011;51813;40.666;16.602;2023-04-06T12:09:17;5.45;;;2.72;;
65230;SDS011;51813;40.666;16.602;2023-04-06T12:11:43;5.57;;;3.38;;
65230;SDS011;51813;40.666;16.602;2023-04-06T12:14:10;5.25;;;3.10;;
65230;SDS011;51813;40.666;16.602;2023-04-06T12:16:36;5.47;;;3.20;;
65230;SDS011;51813;40.666;16.602;2023-04-06T12:19:02;4.80;;;3.10;;
65230;SDS011;51813;40.666;16.602;2023-04-06T12:21:28;5.15;;;3.17;;
65230;SDS011;51813;40.666;16.602;2023-04-06T12:23:56;5.75;;;3.30;;
65230;SDS011;51813;40.666;16.602;2023-04-06T12:26:22;6.35;;;3.25;;
65230;SDS011;51813;40.666;16.602;2023-04-06T12:28:48;6.25;;;3.03;;
65230;SDS011;51813;40.666;16.602;2023-04-06T12:31:14;4.95;;;3.40;;
65230;SDS011;51813;40.666;16.602;2023-04-06T12:33:46;5.88;;;3.35;;
65230;SDS011;51813;40.666;16.602;2023-04-06T12:36:16;5.85;;;3.67;;
65230;SDS011;51813;40.666;16.602;2023-04-06T12:41:10;4.93;;;3.35;;
65230;SDS011;51813;40.666;16.602;2023-04-06T12:43:37;4.93;;;3.85;;
65230;SDS011;51813;40.666;16.602;2023-04-06T12:46:04;5.20;;;3.75;;
65230;SDS011;51813;40.666;16.602;2023-04-06T12:48:30;5.45;;;3.60;;
65230;SDS011;51813;40.666;16.602;2023-04-06T12:50:57;4.82;;;3.50;;
65230;SDS011;51813;40.666;16.602;2023-04-06T12:53:24;5.13;;;3.80;;
65230;SDS011;51813;40.666;16.602;2023-04-06T12:55:51;5.63;;;4.00;;
65230;SDS011;51813;40.666;16.602;2023-04-06T12:58:18;5.88;;;4.10;;
65230;SDS011;51813;40.666;16.602;2023-04-06T13:00:44;6.45;;;4.25;;
65230;SDS011;51813;40.666;16.602;2023-04-06T13:03:10;6.00;;;4.05;;
65230;SDS011;51813;40.666;16.602;2023-04-06T13:05:36;5.15;;;3.30;;
65230;SDS011;51813;40.666;16.602;2023-04-06T13:08:09;5.30;;;3.88;;
65230;SDS011;51813;40.666;16.602;2023-04-06T13:10:35;6.00;;;4.22;;
65230;SDS011;51813;40.666;16.602;2023-04-06T13:13:01;7.32;;;4.10;;
65230;SDS011;51813;40.666;16.602;2023-04-06T13:15:27;6.85;;;3.97;;
65230;SDS011;51813;40.666;16.602;2023-04-06T13:17:52;5.60;;;3.75;;
65230;SDS011;51813;40.666;16.602;2023-04-06T13:20:18;5.13;;;3.95;;
65230;SDS011;51813;40.666;16.602;2023-04-06T13:22:44;6.57;;;4.00;;
65230;SDS011;51813;40.666;16.602;2023-04-06T13:25:09;7.13;;;4.00;;
65230;SDS011;51813;40.666;16.602;2023-04-06T13:27:35;6.43;;;4.28;;
65230;SDS011;51813;40.666;16.602;2023-04-06T13:30:01;8.50;;;4.20;;
65230;SDS011;51813;40.666;16.602;2023-04-06T13:32:28;5.68;;;3.83;;
65230;SDS011;51813;40.666;16.602;2023-04-06T13:34:55;5.50;;;3.67;;
65230;SDS011;51813;40.666;16.602;2023-04-06T13:37:21;5.13;;;3.90;;
65230;SDS011;51813;40.666;16.602;2023-04-06T13:39:47;7.18;;;5.07;;
65230;SDS011;51813;40.666;16.602;2023-04-06T13:42:12;5.80;;;4.13;;
65230;SDS011;51813;40.666;16.602;2023-04-06T13:44:38;6.38;;;4.53;;
65230;SDS011;51813;40.666;16.602;2023-04-06T13:47:04;6.32;;;4.55;;
65230;SDS011;51813;40.666;16.602;2023-04-06T13:49:30;12.95;;;7.43;;
65230;SDS011;51813;40.666;16.602;2023-04-06T13:51:57;10.50;;;6.78;;
65230;SDS011;51813;40.666;16.602;2023-04-06T13:54:23;11.35;;;6.70;;
65230;SDS011;51813;40.666;16.602;2023-04-06T13:56:49;8.57;;;5.70;;
65230;SDS011;51813;40.666;16.602;2023-04-06T13:59:16;7.70;;;5.50;;
65230;SDS011;51813;40.666;16.602;2023-04-06T14:01:41;8.45;;;4.95;;
65230;SDS011;51813;40.666;16.602;2023-04-06T14:04:07;8.32;;;4.43;;
65230;SDS011;51813;40.666;16.602;2023-04-06T14:06:33;7.88;;;4.43;;
65230;SDS011;51813;40.666;16.602;2023-04-06T14:08:59;7.07;;;4.15;;
65230;SDS011;51813;40.666;16.602;2023-04-06T14:11:25;5.78;;;3.60;;
65230;SDS011;51813;40.666;16.602;2023-04-06T14:13:51;5.50;;;3.35;;
65230;SDS011;51813;40.666;16.602;2023-04-06T14:16:16;6.95;;;3.47;;
65230;SDS011;51813;40.666;16.602;2023-04-06T14:18:44;5.43;;;3.58;;
65230;SDS011;51813;40.666;16.602;2023-04-06T14:21:10;5.43;;;2.95;;
65230;SDS011;51813;40.666;16.602;2023-04-06T14:23:36;4.15;;;3.03;;
65230;SDS011;51813;40.666;16.602;2023-04-06T14:26:02;5.10;;;3.28;;
65230;SDS011;51813;40.666;16.602;2023-04-06T14:28:32;5.17;;;3.00;;
65230;SDS011;51813;40.666;16.602;2023-04-06T14:31:01;5.35;;;2.92;;
65230;SDS011;51813;40.666;16.602;2023-04-06T14:33:34;4.78;;;2.65;;
65230;SDS011;51813;40.666;16.602;2023-04-06T14:36:02;7.13;;;2.72;;
65230;SDS011;51813;40.666;16.602;2023-04-06T14:38:28;5.47;;;2.53;;
65230;SDS011;51813;40.666;16.602;2023-04-06T14:40:54;4.20;;;2.40;;
65230;SDS011;51813;40.666;16.602;2023-04-06T14:43:21;4.53;;;2.45;;
65230;SDS011;51813;40.666;16.602;2023-04-06T14:45:46;4.07;;;2.30;;
65230;SDS011;51813;40.666;16.602;2023-04-06T14:48:12;4.43;;;2.28;;
65230;SDS011;51813;40.666;16.602;2023-04-06T14:50:40;4.72;;;2.40;;
65230;SDS011;51813;40.666;16.602;2023-04-06T14:53:06;4.18;;;2.58;;
65230;SDS011;51813;40.666;16.602;2023-04-06T14:55:32;4.18;;;2.63;;
65230;SDS011;51813;40.666;16.602;2023-04-06T14:57:58;4.32;;;2.80;;